sensor_id;sensor_type;location;lat;lon;timestamp;pressure;altitude;pressure_sealevel;temperature;humidity
78485;BME280;67773;50.806;8.776;2024-03-08T00:02:13;99917.22;;;1.80;100.00
78485;BME280;67773;50.806;8.776;2024-03-08T00:04:39;99909.38;;;1.77;100.00
78485;BME280;67773;50.806;8.776;2024-03-08T00:07:04;99904.19;;;1.73;100.00
78485;BME280;67773;50.806;8.776;2024-03-08T00:09:29;99903.47;;;1.62;100.00
78485;BME280;67773;50.806;8.776;2024-03-08T00:11:56;99907.75;;;1.69;100.00
78485;BME280;67773;50.806;8.776;2024-03-08T00:14:21;99904.25;;;1.70;100.00
78485;BME280;67773;50.806;8.776;2024-03-08T00:16:47;99895.56;;;1.68;100.00
78485;BME280;67773;50.806;8.776;2024-03-08T00:19:12;99907.75;;;1.66;100.00
78485;BME280;67773;50.806;8.776;2024-03-08T00:21:37;99903.44;;;1.64;100.00
78485;BME280;67773;50.806;8.776;2024-03-08T00:24:03;99903.53;;;1.58;100.00
78485;BME280;67773;50.806;8.776;2024-03-08T00:26:28;99898.34;;;1.52;100.00
78485;BME280;67773;50.806;8.776;2024-03-08T00:28:55;99897.41;;;1.56;100.00
78485;BME280;67773;50.806;8.776;2024-03-08T00:31:21;99907.97;;;1.48;100.00
78485;BME280;67773;50.806;8.776;2024-03-08T00:33:46;99910.56;;;1.51;100.00
78485;BME280;67773;50.806;8.776;2024-03-08T00:36:12;99906.31;;;1.39;100.00
78485;BME280;67773;50.806;8.776;2024-03-08T00:38:37;99897.63;;;1.39;100.00
78485;BME280;67773;50.806;8.776;2024-03-08T00:41:03;99896.75;;;1.38;100.00
78485;BME280;67773;50.806;8.776;2024-03-08T00:43:28;99894.88;;;1.50;100.00
78485;BME280;67773;50.806;8.776;2024-03-08T00:45:55;99898.50;;;1.38;100.00
78485;BME280;67773;50.806;8.776;2024-03-08T00:48:21;99894.16;;;1.37;100.00
78485;BME280;67773;50.806;8.776;2024-03-08T00:50:46;99888.03;;;1.35;100.00
78485;BME280;67773;50.806;8.776;2024-03-08T00:53:12;99889.72;;;1.42;100.00
78485;BME280;67773;50.806;8.776;2024-03-08T00:55:38;99891.59;;;1.29;100.00
78485;BME280;67773;50.806;8.776;2024-03-08T00:58:04;99884.59;;;1.31;100.00
78485;BME280;67773;50.806;8.776;2024-03-08T01:00:29;99890.69;;;1.32;100.00
78485;BME280;67773;50.806;8.776;2024-03-08T01:02:55;99878.38;;;1.46;100.00
78485;BME280;67773;50.806;8.776;2024-03-08T01:05:20;99873.28;;;1.31;100.00
78485;BME280;67773;50.806;8.776;2024-03-08T01:07:46;99878.56;;;1.28;100.00
78485;BME280;67773;50.806;8.776;2024-03-08T01:10:11;99875.00;;;1.33;100.00
78485;BME280;67773;50.806;8.776;2024-03-08T01:12:38;99876.81;;;1.28;100.00
78485;BME280;67773;50.806;8.776;2024-03-08T01:15:04;99880.38;;;1.18;100.00
78485;BME280;67773;50.806;8.776;2024-03-08T01:17:29;99881.28;;;1.17;100.00
78485;BME280;67773;50.806;8.776;2024-03-08T01:19:56;99873.44;;;1.17;100.00
78485;BME280;67773;50.806;8.776;2024-03-08T01:22:21;99874.31;;;1.16;100.00
78485;BME280;67773;50.806;8.776;2024-03-08T01:24:47;99869.91;;;1.21;100.00
78485;BME280;67773;50.806;8.776;2024-03-08T01:27:13;99870.78;;;1.20;100.00
78485;BME280;67773;50.806;8.776;2024-03-08T01:29:38;99867.31;;;1.18;100.00
78485;BME280;67773;50.806;8.776;2024-03-08T01:32:04;99859.50;;;1.13;100.00
78485;BME280;67773;50.806;8.776;2024-03-08T01:34:29;99857.78;;;1.12;100.00
78485;BME280;67773;50.806;8.776;2024-03-08T01:36:54;99851.81;;;0.98;100.00
78485;BME280;67773;50.806;8.776;2024-03-08T01:39:23;99850.75;;;1.18;100.00
78485;BME280;67773;50.806;8.776;2024-03-08T01:41:48;99849.13;;;1.07;100.00
78485;BME280;67773;50.806;8.776;2024-03-08T01:44:13;99842.09;;;1.12;100.00
78485;BME280;67773;50.806;8.776;2024-03-08T01:46:49;99837.75;;;1.11;100.00
78485;BME280;67773;50.806;8.776;2024-03-08T01:49:17;99839.56;;;1.06;100.00
78485;BME280;67773;50.806;8.776;2024-03-08T01:51:43;99838.75;;;0.98;100.00
78485;BME280;67773;50.806;8.776;2024-03-08T01:54:09;99832.69;;;0.95;100.00
78485;BME280;67773;50.806;8.776;2024-03-08T01:56:36;99835.28;;;0.96;100.00
78485;BME280;67773;50.806;8.776;2024-03-08T01:59:03;99832.69;;;0.95;100.00
78485;BME280;67773;50.806;8.776;2024-03-08T02:01:28;99823.97;;;0.93;100.00
78485;BME280;67773;50.806;8.776;2024-03-08T02:03:54;99826.63;;;0.94;100.00
78485;BME280;67773;50.806;8.776;2024-03-08T02:06:19;99810.06;;;0.91;100.00
78485;BME280;67773;50.806;8.776;2024-03-08T02:08:46;99822.34;;;0.85;100.00
78485;BME280;67773;50.806;8.776;2024-03-08T02:11:12;99811.00;;;0.85;100.00
78485;BME280;67773;50.806;8.776;2024-03-08T02:13:37;99816.22;;;0.86;100.00
78485;BME280;67773;50.806;8.776;2024-03-08T02:16:03;99807.59;;;0.78;100.00
78485;BME280;67773;50.806;8.776;2024-03-08T02:18:31;99806.72;;;0.78;100.00
78485;BME280;67773;50.806;8.776;2024-03-08T02:21:00;99804.97;;;0.78;100.00
78485;BME280;67773;50.806;8.776;2024-03-08T02:23:27;99800.66;;;0.71;100.00
78485;BME280;67773;50.806;8.776;2024-03-08T02:25:54;99793.75;;;0.67;100.00
78485;BME280;67773;50.806;8.776;2024-03-08T02:28:20;99797.22;;;0.69;100.00
78485;BME280;67773;50.806;8.776;2024-03-08T02:30:46;99791.03;;;0.78;100.00
78485;BME280;67773;50.806;8.776;2024-03-08T02:33:17;99787.59;;;0.73;100.00
78485;BME280;67773;50.806;8.776;2024-03-08T02:35:46;99785.09;;;0.61;100.00
78485;BME280;67773;50.806;8.776;2024-03-08T02:38:16;99784.16;;;0.69;100.00
78485;BME280;67773;50.806;8.776;2024-03-08T02:40:45;99781.44;;;0.80;100.00
78485;BME280;67773;50.806;8.776;2024-03-08T02:43:12;99776.38;;;0.65;100.00
78485;BME280;67773;50.806;8.776;2024-03-08T02:45:38;99783.31;;;0.66;100.00
78485;BME280;67773;50.806;8.776;2024-03-08T02:48:04;99781.72;;;0.52;100.00
78485;BME280;67773;50.806;8.776;2024-03-08T02:50:31;99778.28;;;0.41;100.00
78485;BME280;67773;50.806;8.776;2024-03-08T02:52:57;99774.88;;;0.35;100.00
78485;BME280;67773;50.806;8.776;2024-03-08T02:55:22;99780.03;;;0.41;100.00
78485;BME280;67773;50.806;8.776;2024-03-08T02:57:47;99770.38;;;0.52;100.00
78485;BME280;67773;50.806;8.776;2024-03-08T03:00:13;99771.25;;;0.51;100.00
78485;BME280;67773;50.806;8.776;2024-03-08T03:02:39;99772.06;;;0.59;100.00
78485;BME280;67773;50.806;8.776;2024-03-08T03:05:05;99762.63;;;0.41;100.00
78485;BME280;67773;50.806;8.776;2024-03-08T03:07:34;99773.91;;;0.48;100.00
78485;BME280;67773;50.806;8.776;2024-03-08T03:10:00;99776.53;;;0.45;100.00
78485;BME280;67773;50.806;8.776;2024-03-08T03:12:27;99767.91;;;0.35;100.00
78485;BME280;67773;50.806;8.776;2024-03-08T03:14:52;99774.00;;;0.37;100.00
78485;BME280;67773;50.806;8.776;2024-03-08T03:17:18;99765.25;;;0.43;100.00
78485;BME280;67773;50.806;8.776;2024-03-08T03:19:43;99760.91;;;0.43;100.00
78485;BME280;67773;50.806;8.776;2024-03-08T03:22:08;99760.09;;;0.31;100.00
78485;BME280;67773;50.806;8.776;2024-03-08T03:24:35;99754.09;;;0.19;100.00
78485;BME280;67773;50.806;8.776;2024-03-08T03:27:03;99756.75;;;0.16;100.00
78485;BME280;67773;50.806;8.776;2024-03-08T03:29:35;99766.28;;;0.22;100.00
78485;BME280;67773;50.806;8.776;2024-03-08T03:32:00;99760.19;;;0.24;100.00
78485;BME280;67773;50.806;8.776;2024-03-08T03:34:27;99756.72;;;0.22;100.00
78485;BME280;67773;50.806;8.776;2024-03-08T03:36:54;99745.25;;;0.42;100.00
78485;BME280;67773;50.806;8.776;2024-03-08T03:39:21;99748.88;;;0.22;100.00
78485;BME280;67773;50.806;8.776;2024-03-08T03:41:48;99745.28;;;0.36;100.00
78485;BME280;67773;50.806;8.776;2024-03-08T03:44:16;99746.28;;;0.22;100.00
78485;BME280;67773;50.806;8.776;2024-03-08T03:46:42;99739.34;;;0.18;100.00
78485;BME280;67773;50.806;8.776;2024-03-08T03:49:10;99744.53;;;0.23;100.00
78485;BME280;67773;50.806;8.776;2024-03-08T03:51:36;99741.84;;;0.29;100.00
78485;BME280;67773;50.806;8.776;2024-03-08T03:54:01;99741.84;;;0.31;100.00
78485;BME280;67773;50.806;8.776;2024-03-08T03:56:28;99738.34;;;0.35;100.00
78485;BME280;67773;50.806;8.776;2024-03-08T03:58:54;99736.66;;;0.27;100.00
78485;BME280;67773;50.806;8.776;2024-03-08T04:01:19;99737.41;;;0.42;100.00
78485;BME280;67773;50.806;8.776;2024-03-08T04:03:45;99731.25;;;0.47;100.00
78485;BME280;67773;50.806;8.776;2024-03-08T04:06:10;99739.03;;;0.52;100.00
78485;BME280;67773;50.806;8.776;2024-03-08T04:08:35;99733.91;;;0.43;100.00
78485;BME280;67773;50.806;8.776;2024-03-08T04:11:01;99734.78;;;0.40;100.00
78485;BME280;67773;50.806;8.776;2024-03-08T04:13:27;99730.31;;;0.54;100.00
78485;BME280;67773;50.806;8.776;2024-03-08T04:15:52;99735.66;;;0.44;100.00
78485;BME280;67773;50.806;8.776;2024-03-08T04:18:18;99729.63;;;0.36;100.00
78485;BME280;67773;50.806;8.776;2024-03-08T04:20:44;99732.22;;;0.36;100.00
78485;BME280;67773;50.806;8.776;2024-03-08T04:23:09;99727.00;;;0.36;100.00
78485;BME280;67773;50.806;8.776;2024-03-08T04:25:35;99717.50;;;0.28;100.00
78485;BME280;67773;50.806;8.776;2024-03-08T04:28:00;99720.09;;;0.33;100.00
78485;BME280;67773;50.806;8.776;2024-03-08T04:30:25;99720.19;;;0.19;100.00
78485;BME280;67773;50.806;8.776;2024-03-08T04:32:53;99719.34;;;0.16;100.00
78485;BME280;67773;50.806;8.776;2024-03-08T04:35:18;99720.25;;;0.13;100.00
78485;BME280;67773;50.806;8.776;2024-03-08T04:37:45;99717.66;;;0.09;100.00
78485;BME280;67773;50.806;8.776;2024-03-08T04:40:11;99722.00;;;0.11;100.00
78485;BME280;67773;50.806;8.776;2024-03-08T04:42:42;99707.28;;;0.03;100.00
78485;BME280;67773;50.806;8.776;2024-03-08T04:45:08;99711.56;;;0.13;100.00
78485;BME280;67773;50.806;8.776;2024-03-08T04:47:36;99709.91;;;0.01;100.00
78485;BME280;67773;50.806;8.776;2024-03-08T04:50:02;99704.63;;;0.07;100.00
78485;BME280;67773;50.806;8.776;2024-03-08T04:52:27;99704.63;;;0.07;100.00
78485;BME280;67773;50.806;8.776;2024-03-08T04:54:53;99702.91;;;0.06;100.00
78485;BME280;67773;50.806;8.776;2024-03-08T04:57:18;99701.97;;;0.13;100.00
78485;BME280;67773;50.806;8.776;2024-03-08T04:59:44;99709.06;;;-0.04;100.00
78485;BME280;67773;50.806;8.776;2024-03-08T05:02:09;99715.16;;;-0.04;100.00
78485;BME280;67773;50.806;8.776;2024-03-08T05:04:34;99708.19;;;0.00;100.00
78485;BME280;67773;50.806;8.776;2024-03-08T05:07:00;99714.25;;;-0.03;100.00
78485;BME280;67773;50.806;8.776;2024-03-08T05:09:26;99715.09;;;0.04;100.00
78485;BME280;67773;50.806;8.776;2024-03-08T05:11:54;99708.19;;;0.00;100.00
78485;BME280;67773;50.806;8.776;2024-03-08T05:14:19;99711.63;;;-0.01;100.00
78485;BME280;67773;50.806;8.776;2024-03-08T05:16:46;99710.78;;;0.00;100.00
78485;BME280;67773;50.806;8.776;2024-03-08T05:19:18;99706.53;;;-0.10;100.00
78485;BME280;67773;50.806;8.776;2024-03-08T05:21:44;99699.47;;;-0.02;100.00
78485;BME280;67773;50.806;8.776;2024-03-08T05:24:10;99703.91;;;-0.09;100.00
78485;BME280;67773;50.806;8.776;2024-03-08T05:26:35;99686.59;;;-0.19;100.00
78485;BME280;67773;50.806;8.776;2024-03-08T05:29:02;99703.81;;;0.02;100.00
78485;BME280;67773;50.806;8.776;2024-03-08T05:31:28;99701.31;;;-0.10;100.00
78485;BME280;67773;50.806;8.776;2024-03-08T05:33:56;99701.31;;;-0.10;100.00
78485;BME280;67773;50.806;8.776;2024-03-08T05:36:21;99702.16;;;-0.11;100.00
78485;BME280;67773;50.806;8.776;2024-03-08T05:38:47;99701.28;;;-0.09;100.00
78485;BME280;67773;50.806;8.776;2024-03-08T05:41:12;99702.97;;;-0.03;100.00
78485;BME280;67773;50.806;8.776;2024-03-08T05:43:38;99697.78;;;-0.11;100.00
78485;BME280;67773;50.806;8.776;2024-03-08T05:46:04;99699.47;;;0.01;100.00
78485;BME280;67773;50.806;8.776;2024-03-08T05:48:32;99697.81;;;-0.12;100.00
78485;BME280;67773;50.806;8.776;2024-03-08T05:50:58;99694.34;;;-0.14;100.00
78485;BME280;67773;50.806;8.776;2024-03-08T05:53:23;99689.97;;;-0.08;100.00
78485;BME280;67773;50.806;8.776;2024-03-08T05:55:48;99691.63;;;-0.01;100.00
78485;BME280;67773;50.806;8.776;2024-03-08T05:58:14;99694.25;;;-0.02;100.00
78485;BME280;67773;50.806;8.776;2024-03-08T06:00:40;99684.69;;;-0.02;100.00
78485;BME280;67773;50.806;8.776;2024-03-08T06:03:05;99693.47;;;-0.09;100.00
78485;BME280;67773;50.806;8.776;2024-03-08T06:05:30;99690.69;;;0.08;100.00
78485;BME280;67773;50.806;8.776;2024-03-08T06:07:56;99689.81;;;0.12;100.00
78485;BME280;67773;50.806;8.776;2024-03-08T06:10:21;99688.84;;;0.19;100.00
78485;BME280;67773;50.806;8.776;2024-03-08T06:12:47;99685.41;;;0.16;100.00
78485;BME280;67773;50.806;8.776;2024-03-08T06:15:12;99684.59;;;0.12;100.00
78485;BME280;67773;50.806;8.776;2024-03-08T06:17:41;99679.34;;;0.14;100.00
78485;BME280;67773;50.806;8.776;2024-03-08T06:20:07;99684.53;;;0.21;100.00
78485;BME280;67773;50.806;8.776;2024-03-08T06:22:41;99687.06;;;0.27;100.00
78485;BME280;67773;50.806;8.776;2024-03-08T06:25:10;99684.50;;;0.23;100.00
78485;BME280;67773;50.806;8.776;2024-03-08T06:27:40;99681.84;;;0.27;100.00
78485;BME280;67773;50.806;8.776;2024-03-08T06:30:08;99679.19;;;0.29;100.00
78485;BME280;67773;50.806;8.776;2024-03-08T06:32:37;99687.06;;;0.27;100.00
78485;BME280;67773;50.806;8.776;2024-03-08T06:35:04;99687.81;;;0.42;100.00
78485;BME280;67773;50.806;8.776;2024-03-08T06:37:33;99683.47;;;0.38;100.00
78485;BME280;67773;50.806;8.776;2024-03-08T06:39:59;99680.78;;;0.45;100.00
78485;BME280;67773;50.806;8.776;2024-03-08T06:42:26;99685.06;;;0.51;100.00
78485;BME280;67773;50.806;8.776;2024-03-08T06:44:51;99688.47;;;0.61;100.00
78485;BME280;67773;50.806;8.776;2024-03-08T06:47:16;99691.13;;;0.56;100.00
78485;BME280;67773;50.806;8.776;2024-03-08T06:49:42;99673.75;;;0.55;100.00
78485;BME280;67773;50.806;8.776;2024-03-08T06:52:09;99685.81;;;0.62;100.00
78485;BME280;67773;50.806;8.776;2024-03-08T06:54:35;99683.16;;;0.68;100.00
78485;BME280;67773;50.806;8.776;2024-03-08T06:57:04;99683.13;;;0.71;100.00
78485;BME280;67773;50.806;8.776;2024-03-08T06:59:33;99683.94;;;0.78;100.00
78485;BME280;67773;50.806;8.776;2024-03-08T07:02:00;99686.47;;;0.82;100.00
78485;BME280;67773;50.806;8.776;2024-03-08T07:04:26;99671.75;;;0.77;100.00
78485;BME280;67773;50.806;8.776;2024-03-08T07:06:58;99686.34;;;0.95;100.00
78485;BME280;67773;50.806;8.776;2024-03-08T07:09:24;99689.72;;;1.03;100.00
78485;BME280;67773;50.806;8.776;2024-03-08T07:11:50;99681.13;;;0.95;100.00
78485;BME280;67773;50.806;8.776;2024-03-08T07:14:21;99688.84;;;1.04;100.00
78485;BME280;67773;50.806;8.776;2024-03-08T07:16:47;99686.16;;;1.10;100.00
78485;BME280;67773;50.806;8.776;2024-03-08T07:19:12;99686.03;;;1.19;100.00
78485;BME280;67773;50.806;8.776;2024-03-08T07:21:37;99679.13;;;1.15;100.00
78485;BME280;67773;50.806;8.776;2024-03-08T07:24:03;99683.28;;;1.30;100.00
78485;BME280;67773;50.806;8.776;2024-03-08T07:26:43;99678.91;;;1.30;100.00
78485;BME280;67773;50.806;8.776;2024-03-08T07:29:09;99683.16;;;1.39;100.00
78485;BME280;67773;50.806;8.776;2024-03-08T07:31:34;99686.66;;;1.39;100.00
78485;BME280;67773;50.806;8.776;2024-03-08T07:34:15;99683.91;;;1.49;100.00
78485;BME280;67773;50.806;8.776;2024-03-08T07:36:42;99690.56;;;1.71;100.00
78485;BME280;67773;50.806;8.776;2024-03-08T07:39:07;99695.72;;;1.76;100.00
78485;BME280;67773;50.806;8.776;2024-03-08T07:41:37;99693.19;;;1.69;100.00
78485;BME280;67773;50.806;8.776;2024-03-08T07:44:02;99683.41;;;1.82;100.00
78485;BME280;67773;50.806;8.776;2024-03-08T07:46:29;99672.84;;;1.87;100.00
78485;BME280;67773;50.806;8.776;2024-03-08T07:48:54;99677.34;;;1.80;100.00
78485;BME280;67773;50.806;8.776;2024-03-08T07:51:19;99676.31;;;1.90;100.00
78485;BME280;67773;50.806;8.776;2024-03-08T07:53:45;99669.28;;;1.92;100.00
78485;BME280;67773;50.806;8.776;2024-03-08T07:56:11;99673.41;;;2.09;100.00
78485;BME280;67773;50.806;8.776;2024-03-08T07:58:39;99669.00;;;2.11;100.00
78485;BME280;67773;50.806;8.776;2024-03-08T08:01:06;99673.88;;;2.29;100.00
78485;BME280;67773;50.806;8.776;2024-03-08T08:03:31;99660.72;;;2.34;100.00
78485;BME280;67773;50.806;8.776;2024-03-08T08:05:56;99660.56;;;2.43;100.00
78485;BME280;67773;50.806;8.776;2024-03-08T08:08:22;99662.25;;;2.45;100.00
78485;BME280;67773;50.806;8.776;2024-03-08T08:10:47;99654.13;;;2.60;100.00
78485;BME280;67773;50.806;8.776;2024-03-08T08:13:12;99653.50;;;2.46;100.00
78485;BME280;67773;50.806;8.776;2024-03-08T08:15:38;99650.44;;;2.69;100.00
78485;BME280;67773;50.806;8.776;2024-03-08T08:18:03;99646.72;;;2.81;100.00
78485;BME280;67773;50.806;8.776;2024-03-08T08:20:30;99646.50;;;2.92;100.00
78485;BME280;67773;50.806;8.776;2024-03-08T08:22:56;99646.19;;;3.07;100.00
78485;BME280;67773;50.806;8.776;2024-03-08T08:25:22;99644.44;;;3.07;100.00
78485;BME280;67773;50.806;8.776;2024-03-08T08:27:49;99641.56;;;3.19;100.00
78485;BME280;67773;50.806;8.776;2024-03-08T08:30:15;99636.94;;;3.31;100.00
78485;BME280;67773;50.806;8.776;2024-03-08T08:32:40;99628.72;;;3.46;100.00
78485;BME280;67773;50.806;8.776;2024-03-08T08:35:07;99626.69;;;3.59;100.00
78485;BME280;67773;50.806;8.776;2024-03-08T08:37:39;99632.59;;;3.68;100.00
78485;BME280;67773;50.806;8.776;2024-03-08T08:40:05;99621.78;;;3.81;100.00
78485;BME280;67773;50.806;8.776;2024-03-08T08:42:40;99608.25;;;3.97;100.00
78485;BME280;67773;50.806;8.776;2024-03-08T08:45:06;99613.13;;;4.11;100.00
78485;BME280;67773;50.806;8.776;2024-03-08T08:47:37;99611.13;;;4.21;100.00
78485;BME280;67773;50.806;8.776;2024-03-08T08:50:03;99604.16;;;4.20;100.00
78485;BME280;67773;50.806;8.776;2024-03-08T08:52:30;99601.56;;;4.51;100.00
78485;BME280;67773;50.806;8.776;2024-03-08T08:54:57;99596.38;;;4.49;100.00
78485;BME280;67773;50.806;8.776;2024-03-08T08:57:22;99601.03;;;4.71;100.00
78485;BME280;67773;50.806;8.776;2024-03-08T08:59:47;99592.72;;;4.84;100.00
78485;BME280;67773;50.806;8.776;2024-03-08T09:02:13;99591.91;;;4.82;100.00
78485;BME280;67773;50.806;8.776;2024-03-08T09:04:39;99591.00;;;4.83;100.00
78485;BME280;67773;50.806;8.776;2024-03-08T09:07:04;99586.41;;;4.91;100.00
78485;BME280;67773;50.806;8.776;2024-03-08T09:09:33;99584.97;;;5.09;100.00
78485;BME280;67773;50.806;8.776;2024-03-08T09:11:58;99579.84;;;5.05;100.00
78485;BME280;67773;50.806;8.776;2024-03-08T09:14:23;99576.75;;;5.20;100.00
78485;BME280;67773;50.806;8.776;2024-03-08T09:16:51;99567.59;;;5.33;100.00
78485;BME280;67773;50.806;8.776;2024-03-08T09:19:16;99568.91;;;5.46;100.00
78485;BME280;67773;50.806;8.776;2024-03-08T09:21:42;99570.06;;;5.66;98.72
78485;BME280;67773;50.806;8.776;2024-03-08T09:24:07;99568.97;;;5.71;96.20
78485;BME280;67773;50.806;8.776;2024-03-08T09:26:33;99555.97;;;5.93;97.63
78485;BME280;67773;50.806;8.776;2024-03-08T09:28:59;99553.19;;;6.23;97.08
78485;BME280;67773;50.806;8.776;2024-03-08T09:31:24;99558.28;;;6.29;93.87
78485;BME280;67773;50.806;8.776;2024-03-08T09:33:50;99542.94;;;6.40;91.29
78485;BME280;67773;50.806;8.776;2024-03-08T09:36:16;99541.22;;;6.39;92.33
78485;BME280;67773;50.806;8.776;2024-03-08T09:38:42;99542.66;;;6.48;89.19
78485;BME280;67773;50.806;8.776;2024-03-08T09:41:07;99533.59;;;7.23;90.01
78485;BME280;67773;50.806;8.776;2024-03-08T09:43:34;99512.59;;;9.93;76.16
78485;BME280;67773;50.806;8.776;2024-03-08T09:46:00;99517.94;;;12.60;55.10
78485;BME280;67773;50.806;8.776;2024-03-08T09:48:26;99503.16;;;14.83;46.35
78485;BME280;67773;50.806;8.776;2024-03-08T09:50:51;99503.31;;;15.78;42.19
78485;BME280;67773;50.806;8.776;2024-03-08T09:53:17;99495.88;;;17.74;36.78
78485;BME280;67773;50.806;8.776;2024-03-08T09:55:43;99491.84;;;18.42;35.56
78485;BME280;67773;50.806;8.776;2024-03-08T09:58:19;99487.22;;;17.05;36.71
78485;BME280;67773;50.806;8.776;2024-03-08T10:00:44;99492.09;;;17.97;34.18
78485;BME280;67773;50.806;8.776;2024-03-08T10:03:10;99492.34;;;15.81;36.99
78485;BME280;67773;50.806;8.776;2024-03-08T10:05:36;99497.97;;;12.67;43.31
78485;BME280;67773;50.806;8.776;2024-03-08T10:08:02;99484.81;;;13.48;45.76
78485;BME280;67773;50.806;8.776;2024-03-08T10:10:28;99487.78;;;13.83;44.30
78485;BME280;67773;50.806;8.776;2024-03-08T10:12:55;99472.34;;;13.07;46.13
78485;BME280;67773;50.806;8.776;2024-03-08T10:15:20;99462.22;;;13.93;45.45
78485;BME280;67773;50.806;8.776;2024-03-08T10:17:45;99465.72;;;13.94;45.55
78485;BME280;67773;50.806;8.776;2024-03-08T10:20:18;99451.97;;;14.38;43.52
78485;BME280;67773;50.806;8.776;2024-03-08T10:22:44;99452.78;;;16.09;39.89
78485;BME280;67773;50.806;8.776;2024-03-08T10:25:12;99445.03;;;16.17;37.15
78485;BME280;67773;50.806;8.776;2024-03-08T10:27:41;99433.72;;;15.78;38.94
78485;BME280;67773;50.806;8.776;2024-03-08T10:30:15;99420.91;;;16.95;38.16
78485;BME280;67773;50.806;8.776;2024-03-08T10:32:44;99421.91;;;18.32;35.75
78485;BME280;67773;50.806;8.776;2024-03-08T10:35:10;99421.06;;;18.32;34.33
78485;BME280;67773;50.806;8.776;2024-03-08T10:37:44;99416.22;;;18.77;33.93
78485;BME280;67773;50.806;8.776;2024-03-08T10:40:16;99416.94;;;17.33;35.24
78485;BME280;67773;50.806;8.776;2024-03-08T10:42:55;99400.53;;;18.61;32.76
78485;BME280;67773;50.806;8.776;2024-03-08T10:45:29;99404.56;;;17.10;36.33
78485;BME280;67773;50.806;8.776;2024-03-08T10:48:08;99407.03;;;17.01;35.55
78485;BME280;67773;50.806;8.776;2024-03-08T10:50:36;99411.63;;;15.99;37.03
78485;BME280;67773;50.806;8.776;2024-03-08T10:53:06;99400.66;;;16.02;37.84
78485;BME280;67773;50.806;8.776;2024-03-08T10:55:33;99404.13;;;15.69;36.69
78485;BME280;67773;50.806;8.776;2024-03-08T10:57:59;99400.91;;;14.68;38.40
78485;BME280;67773;50.806;8.776;2024-03-08T11:00:25;99397.47;;;13.51;40.75
78485;BME280;67773;50.806;8.776;2024-03-08T11:02:53;99387.50;;;13.28;42.53
78485;BME280;67773;50.806;8.776;2024-03-08T11:05:40;99389.63;;;14.39;40.62
78485;BME280;67773;50.806;8.776;2024-03-08T11:10:49;99381.22;;;16.00;36.59
78485;BME280;67773;50.806;8.776;2024-03-08T11:13:36;99381.34;;;14.67;38.18
78485;BME280;67773;50.806;8.776;2024-03-08T11:16:07;99375.25;;;14.65;38.06
78485;BME280;67773;50.806;8.776;2024-03-08T11:18:34;99368.47;;;13.60;41.60
78485;BME280;67773;50.806;8.776;2024-03-08T11:21:09;99352.69;;;14.20;40.82
78485;BME280;67773;50.806;8.776;2024-03-08T11:23:38;99352.19;;;14.64;39.56
78485;BME280;67773;50.806;8.776;2024-03-08T11:26:20;99358.63;;;14.62;38.14
78485;BME280;67773;50.806;8.776;2024-03-08T11:28:49;99356.38;;;13.41;40.67
78485;BME280;67773;50.806;8.776;2024-03-08T11:33:46;99333.44;;;14.53;39.77
78485;BME280;67773;50.806;8.776;2024-03-08T11:36:23;99331.50;;;15.73;38.48
78485;BME280;67773;50.806;8.776;2024-03-08T11:38:50;99328.94;;;17.16;36.64
78485;BME280;67773;50.806;8.776;2024-03-08T11:41:19;99314.84;;;17.97;35.74
78485;BME280;67773;50.806;8.776;2024-03-08T11:43:48;99325.25;;;19.21;33.98
78485;BME280;67773;50.806;8.776;2024-03-08T11:46:16;99307.84;;;20.48;29.86
78485;BME280;67773;50.806;8.776;2024-03-08T11:48:43;99304.38;;;18.74;32.15
78485;BME280;67773;50.806;8.776;2024-03-08T11:51:12;99314.22;;;20.00;29.17
78485;BME280;67773;50.806;8.776;2024-03-08T11:53:39;99295.34;;;19.72;29.70
78485;BME280;67773;50.806;8.776;2024-03-08T11:56:10;99288.13;;;18.66;30.63
78485;BME280;67773;50.806;8.776;2024-03-08T11:58:36;99298.47;;;17.17;34.01
78485;BME280;67773;50.806;8.776;2024-03-08T12:01:09;99278.00;;;17.37;34.09
78485;BME280;67773;50.806;8.776;2024-03-08T12:03:41;99275.66;;;17.64;33.59
78485;BME280;67773;50.806;8.776;2024-03-08T12:06:10;99276.09;;;17.07;34.42
78485;BME280;67773;50.806;8.776;2024-03-08T12:08:36;99281.94;;;17.74;34.14
78485;BME280;67773;50.806;8.776;2024-03-08T12:11:04;99272.63;;;17.78;32.78
78485;BME280;67773;50.806;8.776;2024-03-08T12:13:31;99274.31;;;16.41;34.04
78485;BME280;67773;50.806;8.776;2024-03-08T12:15:57;99282.31;;;14.70;36.91
78485;BME280;67773;50.806;8.776;2024-03-08T12:18:25;99281.47;;;14.57;37.96
78485;BME280;67773;50.806;8.776;2024-03-08T12:20:51;99271.50;;;13.86;38.73
78485;BME280;67773;50.806;8.776;2024-03-08T12:23:16;99281.00;;;14.39;38.41
78485;BME280;67773;50.806;8.776;2024-03-08T12:25:42;99268.94;;;14.70;37.29
78485;BME280;67773;50.806;8.776;2024-03-08T12:28:12;99270.94;;;15.61;36.39
78485;BME280;67773;50.806;8.776;2024-03-08T12:30:51;99259.59;;;14.52;37.56
78485;BME280;67773;50.806;8.776;2024-03-08T12:33:19;99262.50;;;15.08;38.18
78485;BME280;67773;50.806;8.776;2024-03-08T12:35:55;99261.50;;;14.98;38.58
78485;BME280;67773;50.806;8.776;2024-03-08T12:38:21;99270.53;;;13.23;40.48
78485;BME280;67773;50.806;8.776;2024-03-08T12:40:58;99258.38;;;13.32;42.47
78485;BME280;67773;50.806;8.776;2024-03-08T12:43:23;99256.69;;;13.56;40.51
78485;BME280;67773;50.806;8.776;2024-03-08T12:45:49;99237.13;;;15.94;38.39
78485;BME280;67773;50.806;8.776;2024-03-08T12:48:14;99232.22;;;16.32;35.52
78485;BME280;67773;50.806;8.776;2024-03-08T12:50:41;99230.91;;;17.23;34.63
78485;BME280;67773;50.806;8.776;2024-03-08T12:53:09;99219.91;;;18.08;33.50
78485;BME280;67773;50.806;8.776;2024-03-08T12:55:34;99225.44;;;18.16;31.46
78485;BME280;67773;50.806;8.776;2024-03-08T12:58:00;99221.03;;;18.05;32.87
78485;BME280;67773;50.806;8.776;2024-03-08T13:00:26;99220.41;;;17.82;32.78
78485;BME280;67773;50.806;8.776;2024-03-08T13:02:53;99212.34;;;17.92;32.46
78485;BME280;67773;50.806;8.776;2024-03-08T13:05:18;99202.19;;;17.96;32.42